Time;durP1;ratioP1;P1;durP2;ratioP2;P2;SDS_P1;SDS_P2;PMS_P1;PMS_P2;Temp;Humidity;BMP_temperature;BMP_pressure;BME280_temperature;BME280_humidity;BME280_pressure;Samples;Min_cycle;Max_cycle;Signal;HPM_P1;HPM_P2
2021/12/17 00:01:00;;;;;;;16.50;8.10;;;;;;;6.81;69.25;100310.16;212993;1322;139543;-61
2021/12/17 00:06:28;;;;;;;19.60;8.40;;;;;;;6.78;69.38;100301.45;213523;1322;140556;-61
2021/12/17 00:11:30;;;;;;;20.30;9.00;;;;;;;6.73;69.23;100293.63;212357;1322;139640;-63
2021/12/17 00:16:38;;;;;;;13.40;7.10;;;;;;;6.66;69.20;100288.16;212751;1322;139449;-61
2021/12/17 00:48:37;;;;;;;19.60;7.70;;;;;;;6.51;69.81;100293.33;212391;1322;141912;-66
2021/12/17 00:53:40;;;;;;;69.90;38.20;;;;;;;6.49;69.65;100303.59;213396;1322;139770;-60
2021/12/17 00:58:44;;;;;;;21.80;9.20;;;;;;;6.58;69.89;100297.38;213361;1322;140608;-63
2021/12/17 01:03:48;;;;;;;15.70;6.90;;;;;;;6.62;69.63;100297.08;212769;1326;139095;-61
2021/12/17 01:08:53;;;;;;;13.30;6.60;;;;;;;6.56;69.41;100297.97;212506;1322;140155;-63
2021/12/17 01:13:59;;;;;;;16.80;6.40;;;;;;;6.50;69.28;100297.22;211984;1332;139610;-61
2021/12/17 01:24:57;;;;;;;13.40;6.50;;;;;;;6.43;69.48;100288.95;212026;1325;139554;-61
2021/12/17 01:35:42;;;;;;;12.80;6.10;;;;;;;6.47;69.74;100293.59;211983;1328;139846;-62
2021/12/17 01:41:12;;;;;;;13.20;5.80;;;;;;;6.48;69.59;100288.44;212195;1325;138602;-62
2021/12/17 01:46:21;;;;;;;15.70;6.00;;;;;;;6.46;69.48;100290.64;212266;1325;140106;-61
2021/12/17 01:56:54;;;;;;;10.70;5.20;;;;;;;6.48;69.33;100292.31;211985;1328;140130;-65
2021/12/17 02:02:03;;;;;;;14.00;5.50;;;;;;;6.48;69.40;100275.41;211861;1334;139913;-63
2021/12/17 02:07:07;;;;;;;13.90;5.60;;;;;;;6.47;69.30;100262.56;212379;1324;138589;-63
2021/12/17 02:33:38;;;;;;;12.00;4.90;;;;;;;6.43;68.92;100259.84;212494;1323;138879;-64
2021/12/17 02:38:41;;;;;;;18.80;4.70;;;;;;;6.40;68.66;100249.33;211817;1328;139306;-67
2021/12/17 02:49:34;;;;;;;;;;;;;;;6.30;68.43;100250.98;212042;1325;139063;-60
2021/12/17 02:54:37;;;;;;;10.50;4.10;;;;;;;6.31;68.71;100262.60;212092;1329;125362;-65
2021/12/17 02:59:40;;;;;;;13.20;4.50;;;;;;;6.31;68.55;100266.13;211903;1328;138985;-62
2021/12/17 03:05:01;;;;;;;12.10;4.40;;;;;;;6.33;68.45;100270.15;212237;1325;140306;-61
2021/12/17 03:10:10;;;;;;;10.50;4.30;;;;;;;6.36;68.45;100273.22;212777;1322;139844;-61
2021/12/17 03:26:07;;;;;;;10.50;3.80;;;;;;;6.35;68.31;100269.76;212869;1323;125653;-63
2021/12/17 03:31:12;;;;;;;12.50;4.80;;;;;;;6.31;68.11;100262.08;212717;1322;139202;-63
2021/12/17 03:36:18;;;;;;;8.00;4.00;;;;;;;6.29;67.95;100259.85;212037;1328;139289;-62
2021/12/17 03:41:25;;;;;;;;;;;;;;;6.25;67.84;100265.57;211957;1325;139056;-61
2021/12/17 03:46:34;;;;;;;17.30;5.00;;;;;;;6.25;68.17;100276.34;212223;1325;124794;-62
2021/12/17 03:51:48;;;;;;;9.20;4.20;;;;;;;6.26;67.68;100279.65;211855;1331;139134;-63
2021/12/17 03:56:53;;;;;;;12.70;4.50;;;;;;;6.29;67.79;100275.02;212168;1325;139317;-65
2021/12/17 04:01:56;;;;;;;13.70;4.10;;;;;;;6.35;67.53;100270.45;212191;1331;139754;-61
2021/12/17 04:07:00;;;;;;;12.30;4.20;;;;;;;6.38;67.30;100270.19;211928;1328;139543;-63
2021/12/17 04:12:37;;;;;;;14.50;4.50;;;;;;;6.40;67.30;100263.64;212104;1323;140217;-65
2021/12/17 04:17:53;;;;;;;11.50;3.80;;;;;;;6.39;67.10;100263.46;212279;1329;141632;-64
2021/12/17 04:22:56;;;;;;;9.50;3.80;;;;;;;6.30;66.81;100257.70;212217;1328;139014;-61
2021/12/17 04:28:00;;;;;;;14.60;4.00;;;;;;;6.27;66.96;100257.77;211888;1338;139177;-62
2021/12/17 04:33:06;;;;;;;11.20;3.90;;;;;;;6.19;66.63;100245.64;212558;1326;139775;-64
2021/12/17 04:38:12;;;;;;;14.40;4.30;;;;;;;6.11;66.65;100250.06;212352;1328;138992;-65
2021/12/17 04:43:32;;;;;;;12.10;4.30;;;;;;;6.03;66.56;100238.98;212082;1325;139064;-59
2021/12/17 04:59:29;;;;;;;10.40;4.10;;;;;;;6.06;67.00;100248.24;212516;1323;140190;-62
2021/12/17 05:04:34;;;;;;;13.60;4.30;;;;;;;6.06;66.77;100238.04;212073;1328;138909;-63
2021/12/17 05:09:55;;;;;;;13.10;5.00;;;;;;;6.01;66.86;100234.11;212306;1322;139432;-67
2021/12/17 05:20:32;;;;;;;13.40;4.80;;;;;;;5.99;67.01;100229.04;212132;1332;139121;-62
2021/12/17 05:25:36;;;;;;;10.20;3.90;;;;;;;5.97;66.80;100236.30;212789;1322;139057;-66
2021/12/17 05:30:45;;;;;;;9.10;4.00;;;;;;;5.92;66.74;100230.77;212178;1325;138739;-63
2021/12/17 05:35:49;;;;;;;12.60;4.00;;;;;;;5.88;66.57;100217.48;212218;1325;138918;-63
2021/12/17 05:40:55;;;;;;;13.70;3.60;;;;;;;5.88;66.66;100213.58;211892;1331;139513;-65
2021/12/17 05:51:04;;;;;;;13.30;4.50;;;;;;;5.99;66.52;100230.80;212326;1328;139202;-68
2021/12/17 05:56:08;;;;;;;13.30;4.10;;;;;;;6.04;66.45;100229.79;212606;1322;139975;-61
2021/12/17 06:01:22;;;;;;;13.00;4.50;;;;;;;6.01;66.32;100225.30;213643;1322;139382;-65
2021/12/17 06:06:35;;;;;;;8.80;3.50;;;;;;;5.96;66.26;100228.06;212351;1323;139449;-59
2021/12/17 06:11:39;;;;;;;10.20;3.60;;;;;;;5.92;66.08;100233.08;212187;1313;138672;-66
2021/12/17 06:16:50;;;;;;;10.90;4.20;;;;;;;5.87;66.06;100247.42;212048;1331;139318;-61
2021/12/17 06:22:01;;;;;;;11.30;4.30;;;;;;;5.85;66.04;100251.71;212062;1323;138958;-63
2021/12/17 06:27:05;;;;;;;75.00;42.80;;;;;;;5.89;66.27;100260.96;212324;1322;139671;-65
2021/12/17 06:32:08;;;;;;;16.80;4.80;;;;;;;6.01;66.12;100259.48;212430;1325;139743;-61
2021/12/17 06:37:13;;;;;;;337.00;207.20;;;;;;;6.07;65.88;100263.73;211905;1328;140631;-61
2021/12/17 06:42:17;;;;;;;16.20;6.40;;;;;;;6.15;66.23;100268.82;212115;1325;140211;-63
2021/12/17 06:47:32;;;;;;;10.10;4.80;;;;;;;6.18;65.88;100265.58;212053;1325;139453;-63
2021/12/17 06:58:54;;;;;;;14.70;4.50;;;;;;;5.99;65.47;100259.34;212613;1322;138970;-61
2021/12/17 07:41:44;;;;;;;14.50;3.80;;;;;;;5.77;65.72;100252.43;212473;1322;139501;-60
2021/12/17 07:47:04;;;;;;;13.30;3.60;;;;;;;5.78;65.62;100244.83;212422;1327;139567;-61
2021/12/17 07:52:08;;;;;;;12.10;4.30;;;;;;;5.77;65.68;100244.14;212205;1325;139157;-61
2021/12/17 07:57:12;;;;;;;20.40;10.60;;;;;;;5.77;65.65;100243.97;211986;1325;139368;-62
2021/12/17 08:02:15;;;;;;;13.30;4.80;;;;;;;5.83;65.73;100243.29;212954;1326;139488;-62
2021/12/17 08:07:23;;;;;;;18.80;4.60;;;;;;;5.81;65.41;100244.77;212264;1329;139280;-61
2021/12/17 08:12:26;;;;;;;11.00;3.60;;;;;;;5.74;65.61;100237.87;212144;1323;141189;-61
2021/12/17 08:28:23;;;;;;;16.70;4.10;;;;;;;5.78;65.39;100256.63;212511;1326;139050;-60
2021/12/17 08:33:28;;;;;;;14.60;3.60;;;;;;;5.79;65.40;100262.39;212210;1319;141706;-60
2021/12/17 08:38:32;;;;;;;13.80;4.10;;;;;;;5.83;65.42;100264.79;212237;1326;139805;-59
2021/12/17 08:43:37;;;;;;;15.60;4.20;;;;;;;5.85;65.43;100263.33;212306;1322;140828;-58
2021/12/17 08:48:43;;;;;;;241.80;131.00;;;;;;;5.85;65.77;100271.27;211980;1331;139262;-62
2021/12/17 08:54:16;;;;;;;24.90;8.60;;;;;;;6.02;66.43;100284.27;212315;1327;139492;-57
2021/12/17 08:59:21;;;;;;;19.00;5.00;;;;;;;6.12;65.81;100284.91;213557;1319;139662;-62
2021/12/17 09:04:42;;;;;;;13.90;4.20;;;;;;;6.06;65.55;100298.64;212805;1320;140055;-62
2021/12/17 09:09:48;;;;;;;14.20;4.30;;;;;;;6.00;65.13;100301.61;212031;1330;138622;-62
2021/12/17 09:15:04;;;;;;;15.10;4.20;;;;;;;5.95;65.24;100296.98;212420;1328;138625;-59
2021/12/17 09:20:26;;;;;;;14.70;4.90;;;;;;;5.91;65.17;100294.36;212599;1323;138829;-60
2021/12/17 09:25:29;;;;;;;12.30;4.10;;;;;;;5.92;65.38;100287.84;212592;1323;139428;-59
2021/12/17 09:30:36;;;;;;;16.90;4.30;;;;;;;5.99;65.49;100284.72;211975;1329;139932;-60
2021/12/17 09:35:40;;;;;;;14.50;3.90;;;;;;;6.08;65.48;100283.63;211975;1328;141464;-61
2021/12/17 09:40:43;;;;;;;12.70;4.70;;;;;;;6.20;65.60;100277.34;212438;1326;139998;-58
2021/12/17 09:45:46;;;;;;;26.30;12.00;;;;;;;6.32;65.80;100274.77;211988;1329;139168;-58
2021/12/17 09:50:52;;;;;;;12.10;4.30;;;;;;;6.47;65.60;100265.21;212322;1330;139643;-58
2021/12/17 09:55:55;;;;;;;14.50;3.60;;;;;;;6.44;65.12;100264.40;211958;1323;139213;-59
2021/12/17 10:00:58;;;;;;;13.00;4.50;;;;;;;6.38;64.90;100257.86;212431;1322;139247;-59
2021/12/17 10:06:01;;;;;;;14.90;3.70;;;;;;;6.34;64.81;100257.08;212061;1322;139064;-60
2021/12/17 10:11:04;;;;;;;15.60;4.30;;;;;;;6.29;64.77;100254.04;212471;1323;139075;-60
2021/12/17 10:16:10;;;;;;;13.40;4.40;;;;;;;6.27;64.85;100248.26;212753;1319;139494;-58
2021/12/17 10:21:24;;;;;;;14.30;4.50;;;;;;;6.24;64.75;100245.52;212125;1327;138341;-60
2021/12/17 10:26:28;;;;;;;25.10;15.50;;;;;;;6.21;64.56;100243.66;213107;1322;140601;-61
2021/12/17 10:31:36;;;;;;;15.20;4.50;;;;;;;6.27;64.86;100239.44;212089;1328;139201;-60
2021/12/17 10:36:43;;;;;;;13.10;4.10;;;;;;;6.27;64.71;100238.05;212901;1322;140331;-60
2021/12/17 10:41:49;;;;;;;13.00;4.10;;;;;;;6.30;64.60;100244.66;212742;1325;138799;-59
2021/12/17 10:47:09;;;;;;;16.00;4.00;;;;;;;6.31;64.26;100246.40;212370;1327;139155;-59
2021/12/17 10:52:15;;;;;;;11.30;4.30;;;;;;;6.23;64.40;100242.20;212495;1323;138523;-60
2021/12/17 10:57:29;;;;;;;18.20;4.00;;;;;;;6.18;64.09;100246.55;212883;1321;139743;-59
2021/12/17 11:02:37;;;;;;;9.50;4.10;;;;;;;6.18;64.29;100244.77;212506;1328;141386;-59
2021/12/17 11:07:47;;;;;;;10.20;3.80;;;;;;;6.20;64.06;100240.50;212150;1322;139107;-61
2021/12/17 11:12:50;;;;;;;15.60;4.50;;;;;;;6.22;64.13;100232.89;212525;1322;140316;-61
2021/12/17 11:18:00;;;;;;;14.50;4.70;;;;;;;6.25;64.54;100230.70;212769;1323;185198;-57
2021/12/17 11:23:09;;;;;;;11.20;4.10;;;;;;;6.27;64.16;100227.11;213330;1325;139124;-61
2021/12/17 11:28:12;;;;;;;13.00;4.10;;;;;;;6.28;64.10;100223.02;212357;1328;140377;-60
2021/12/17 11:33:16;;;;;;;12.40;4.80;;;;;;;6.30;64.15;100220.88;212345;1321;140498;-59
2021/12/17 11:38:47;;;;;;;12.70;4.90;;;;;;;6.35;64.32;100222.67;212407;1328;139064;-60
2021/12/17 11:44:09;;;;;;;12.00;4.00;;;;;;;6.43;64.41;100215.78;212916;1323;140261;-60
2021/12/17 11:49:15;;;;;;;15.10;5.10;;;;;;;6.44;63.97;100220.15;212697;1322;138979;-60
2021/12/17 11:54:25;;;;;;;11.00;3.90;;;;;;;6.40;63.95;100222.72;213214;1321;139611;-60
2021/12/17 11:59:30;;;;;;;11.70;4.00;;;;;;;6.36;63.75;100216.66;212055;1329;138598;-60
2021/12/17 12:04:34;;;;;;;16.30;4.10;;;;;;;6.29;63.45;100213.48;212443;1328;138912;-57
2021/12/17 12:09:56;;;;;;;14.20;4.50;;;;;;;6.18;63.46;100210.78;211946;1328;139295;-59
2021/12/17 12:15:20;;;;;;;22.20;9.80;;;;;;;6.13;63.94;100203.48;212009;1328;138889;-59
2021/12/17 12:20:43;;;;;;;13.70;4.20;;;;;;;6.18;63.69;100201.45;212239;1322;139285;-60
2021/12/17 12:26:13;;;;;;;11.00;4.10;;;;;;;6.08;63.44;100199.75;212115;1323;138996;-60
2021/12/17 12:31:31;;;;;;;11.00;4.20;;;;;;;6.03;63.61;100206.02;212793;1325;139488;-58
2021/12/17 12:36:51;;;;;;;9.60;4.00;;;;;;;5.99;63.46;100210.56;212530;1326;139820;-60
2021/12/17 12:42:03;;;;;;;11.70;4.70;;;;;;;5.93;63.54;100212.27;211754;1333;138757;-60
2021/12/17 12:47:29;;;;;;;10.60;4.60;;;;;;;5.92;63.43;100207.88;212246;1323;139598;-59
2021/12/17 12:52:32;;;;;;;18.90;4.90;;;;;;;5.89;63.49;100204.95;212378;1328;139187;-57
2021/12/17 12:57:46;;;;;;;12.00;4.70;;;;;;;5.87;63.58;100206.91;211984;1328;139083;-58
2021/12/17 13:02:56;;;;;;;12.90;4.50;;;;;;;5.86;63.38;100197.08;211982;1330;139989;-59
2021/12/17 13:08:02;;;;;;;14.30;4.50;;;;;;;5.87;63.50;100197.95;211901;1335;139021;-59
2021/12/17 13:23:54;;;;;;;14.30;4.60;;;;;;;6.10;64.25;100189.50;212596;1324;140124;-56
2021/12/17 13:29:21;;;;;;;11.80;5.00;;;;;;;6.13;63.70;100195.95;212094;1330;139744;-59
2021/12/17 13:34:38;;;;;;;13.70;5.20;;;;;;;6.12;63.79;100201.59;212252;1319;139068;-59
2021/12/17 13:39:52;;;;;;;11.50;4.60;;;;;;;6.08;63.58;100201.87;212728;1326;139049;-58
2021/12/17 13:44:59;;;;;;;10.50;4.90;;;;;;;5.99;63.48;100210.02;212518;1326;139136;-60
2021/12/17 13:50:11;;;;;;;17.50;7.40;;;;;;;6.02;63.87;100211.89;212535;1323;139834;-59
2021/12/17 13:55:23;;;;;;;13.70;5.40;;;;;;;6.05;63.68;100206.36;211920;1328;139894;-59
2021/12/17 14:00:36;;;;;;;15.90;5.40;;;;;;;6.02;63.84;100207.67;212603;1328;139410;-61
2021/12/17 14:05:43;;;;;;;21.10;6.10;;;;;;;5.97;63.68;100207.09;211928;1322;139205;-59
2021/12/17 14:10:49;;;;;;;12.00;4.90;;;;;;;5.96;63.56;100205.52;212596;1328;139585;-60
2021/12/17 14:15:53;;;;;;;;;;;;;;;5.93;63.58;100206.28;212295;1328;138959;-63
2021/12/17 14:21:01;;;;;;;14.50;5.50;;;;;;;5.87;63.44;100194.94;212719;1323;125264;-62
2021/12/17 14:26:09;;;;;;;111.50;58.80;;;;;;;5.83;63.76;100204.39;212552;1320;138651;-63
2021/12/17 14:31:16;;;;;;;19.90;7.00;;;;;;;5.84;63.54;100200.83;212449;1325;140002;-62
2021/12/17 14:36:19;;;;;;;18.20;5.50;;;;;;;5.80;63.57;100200.22;212225;1328;139730;-63
2021/12/17 14:41:44;;;;;;;13.80;5.30;;;;;;;5.81;63.76;100190.70;212205;1321;139787;-60
2021/12/17 15:07:54;;;;;;;10.30;4.60;;;;;;;5.71;63.61;100207.81;211990;1331;139760;-59
2021/12/17 15:13:00;;;;;;;14.00;5.50;;;;;;;5.72;63.64;100214.16;211978;1332;140237;-62
2021/12/17 15:18:04;;;;;;;;;;;;;;;5.73;63.58;100210.44;212522;1320;139175;-60
2021/12/17 15:23:08;;;;;;;14.90;5.90;;;;;;;5.71;63.67;100213.65;212359;1329;125538;-61
2021/12/17 15:28:14;;;;;;;17.40;6.30;;;;;;;5.69;63.93;100214.39;212510;1320;140835;-59
2021/12/17 15:33:17;;;;;;;;;;;;;;;5.63;63.63;100217.89;212355;1328;139566;-60
2021/12/17 15:38:23;;;;;;;17.00;6.20;;;;;;;5.61;63.73;100218.98;212856;1326;125620;-60
2021/12/17 15:43:26;;;;;;;13.10;6.20;;;;;;;5.67;64.18;100233.27;212959;1326;139272;-64
2021/12/17 15:48:29;;;;;;;19.00;6.90;;;;;;;5.75;63.99;100242.27;212344;1326;141811;-61
2021/12/17 15:53:36;;;;;;;16.70;6.40;;;;;;;5.77;63.96;100234.27;212500;1326;138720;-60
2021/12/17 15:58:39;;;;;;;38.90;21.60;;;;;;;5.80;63.78;100242.15;211917;1323;139225;-58
2021/12/17 16:03:43;;;;;;;36.30;16.70;;;;;;;5.85;64.22;100241.15;212629;1322;139219;-58
2021/12/17 16:08:52;;;;;;;18.20;6.60;;;;;;;5.95;63.88;100239.35;212159;1329;139055;-60
2021/12/17 16:24:33;;;;;;;17.70;6.20;;;;;;;5.84;63.47;100219.33;212548;1322;139801;-62
2021/12/17 16:29:36;;;;;;;14.20;6.10;;;;;;;5.87;63.52;100221.34;212717;1322;139497;-59
2021/12/17 16:34:39;;;;;;;19.90;9.30;;;;;;;5.88;63.52;100226.28;212174;1328;140150;-58
2021/12/17 16:39:54;;;;;;;17.90;7.30;;;;;;;5.96;63.63;100225.42;212011;1322;139495;-61
2021/12/17 16:45:30;;;;;;;16.90;7.20;;;;;;;6.04;63.49;100227.33;212269;1328;139063;-60
2021/12/17 16:50:34;;;;;;;17.80;6.90;;;;;;;6.04;63.46;100231.41;212332;1318;139311;-60
2021/12/17 16:55:38;;;;;;;11.20;5.80;;;;;;;6.02;63.61;100215.58;212390;1322;139810;-62
2021/12/17 17:00:41;;;;;;;15.20;6.20;;;;;;;6.00;63.37;100216.17;211784;1331;139980;-60
2021/12/17 17:05:44;;;;;;;16.40;6.20;;;;;;;6.02;63.40;100227.23;212730;1325;139965;-62
2021/12/17 17:10:51;;;;;;;13.20;6.10;;;;;;;6.03;63.48;100229.30;212233;1325;141703;-60
2021/12/17 17:15:56;;;;;;;14.20;5.60;;;;;;;5.99;63.48;100231.69;212536;1322;139317;-61
2021/12/17 17:21:06;;;;;;;16.80;5.80;;;;;;;5.93;63.37;100238.87;212675;1320;139063;-60
2021/12/17 17:26:10;;;;;;;16.90;5.90;;;;;;;5.91;63.48;100243.83;212857;1326;139193;-61
2021/12/17 17:31:14;;;;;;;18.20;6.10;;;;;;;5.91;63.55;100242.96;212278;1326;138869;-60
2021/12/17 17:36:21;;;;;;;17.90;5.90;;;;;;;5.95;63.62;100246.57;212340;1326;139504;-63
2021/12/17 17:41:26;;;;;;;16.40;6.30;;;;;;;5.97;63.38;100247.95;212290;1326;139289;-62
2021/12/17 17:46:30;;;;;;;307.00;209.20;;;;;;;5.91;63.43;100256.69;212191;1322;140200;-60
2021/12/17 17:51:33;;;;;;;21.10;6.30;;;;;;;5.92;63.51;100254.73;212129;1323;140839;-61
2021/12/17 17:56:37;;;;;;;14.80;5.60;;;;;;;5.87;63.60;100253.23;212417;1322;139898;-61
2021/12/17 18:01:40;;;;;;;13.50;5.70;;;;;;;5.89;63.62;100256.38;212185;1326;138711;-64
2021/12/17 18:06:43;;;;;;;19.20;6.50;;;;;;;5.92;63.60;100253.15;212921;1325;139699;-60
2021/12/17 18:11:48;;;;;;;19.70;8.80;;;;;;;5.94;63.46;100247.48;212881;1322;139435;-61
2021/12/17 18:16:51;;;;;;;16.10;6.40;;;;;;;6.00;63.66;100251.77;212332;1322;139468;-59
2021/12/17 18:22:19;;;;;;;21.80;5.80;;;;;;;6.01;63.26;100260.52;212224;1326;139321;-60
2021/12/17 18:27:31;;;;;;;17.30;5.90;;;;;;;5.95;63.07;100265.08;212173;1326;139037;-59
2021/12/17 18:32:42;;;;;;;26.70;10.10;;;;;;;5.97;63.55;100264.50;212288;1325;138756;-63
2021/12/17 18:37:46;;;;;;;16.60;6.00;;;;;;;6.02;63.50;100257.33;212572;1326;139526;-61
2021/12/17 18:48:27;;;;;;;13.90;5.50;;;;;;;5.98;63.63;100256.73;212113;1322;139118;-61
2021/12/17 18:53:34;;;;;;;11.50;5.00;;;;;;;6.00;63.22;100258.27;211601;1324;138681;-61
2021/12/17 18:58:46;;;;;;;16.00;5.60;;;;;;;6.01;63.30;100260.71;211616;1331;139538;-62
2021/12/17 19:03:51;;;;;;;16.60;5.50;;;;;;;6.05;63.45;100261.66;212372;1325;139469;-60
2021/12/17 19:08:55;;;;;;;72.70;40.20;;;;;;;6.03;63.32;100254.66;211710;1332;139990;-63
2021/12/17 19:14:00;;;;;;;17.50;6.40;;;;;;;6.12;63.66;100257.27;211788;1325;194590;-59
2021/12/17 19:19:11;;;;;;;12.80;4.50;;;;;;;6.08;63.19;100268.81;212285;1322;139824;-61
2021/12/17 19:24:15;;;;;;;18.10;4.90;;;;;;;6.07;63.35;100278.34;211635;1325;140186;-60
2021/12/17 19:29:20;;;;;;;14.00;5.10;;;;;;;6.12;63.44;100288.43;212242;1329;139726;-61
2021/12/17 19:34:23;;;;;;;12.40;4.80;;;;;;;6.15;63.53;100297.16;211613;1328;139070;-65
2021/12/17 19:39:27;;;;;;;11.70;4.20;;;;;;;6.17;63.46;100295.54;212131;1329;139552;-58
2021/12/17 19:44:30;;;;;;;15.90;4.60;;;;;;;6.14;63.46;100287.86;211773;1328;139402;-59
2021/12/17 19:54:51;;;;;;;13.90;4.60;;;;;;;6.09;63.69;100294.33;211831;1325;139365;-62
2021/12/17 20:00:03;;;;;;;14.60;4.70;;;;;;;6.04;63.43;100295.52;212607;1322;138663;-59
2021/12/17 20:05:10;;;;;;;7.30;2.90;;;;;;;5.98;63.67;100301.65;212279;1326;139237;-64
2021/12/17 20:10:14;;;;;;;17.30;4.90;;;;;;;5.90;63.65;100300.20;212502;1323;139527;-61
2021/12/17 20:15:17;;;;;;;328.70;210.90;;;;;;;5.83;63.58;100298.77;212729;1323;139781;-60
2021/12/17 20:20:21;;;;;;;25.00;12.80;;;;;;;5.86;64.36;100301.00;212339;1322;139718;-62
2021/12/17 20:25:24;;;;;;;20.50;7.00;;;;;;;5.88;64.12;100301.47;212036;1325;139490;-65
2021/12/17 20:30:27;;;;;;;15.70;5.50;;;;;;;5.87;63.94;100303.42;212251;1322;139912;-67
2021/12/17 20:35:30;;;;;;;16.60;5.10;;;;;;;5.90;64.28;100298.79;211927;1322;139743;-60
2021/12/17 20:40:34;;;;;;;15.40;5.30;;;;;;;6.01;64.01;100299.80;212321;1322;139605;-65
2021/12/17 20:45:38;;;;;;;518.80;336.90;;;;;;;6.03;64.31;100307.16;212103;1330;139176;-62
2021/12/17 20:50:43;;;;;;;22.60;9.90;;;;;;;6.07;64.41;100314.98;211755;1329;139855;-60
2021/12/17 20:55:46;;;;;;;21.70;9.30;;;;;;;6.03;64.02;100319.68;212118;1328;139061;-60
2021/12/17 21:00:49;;;;;;;17.10;5.60;;;;;;;5.95;64.15;100316.49;212238;1325;138662;-60
2021/12/17 21:05:52;;;;;;;16.70;5.60;;;;;;;5.90;64.22;100326.45;212048;1329;139408;-64
2021/12/17 21:10:56;;;;;;;15.80;5.30;;;;;;;5.86;64.40;100334.63;212189;1322;139439;-61
2021/12/17 21:15:59;;;;;;;17.20;5.20;;;;;;;5.82;64.31;100344.76;212166;1323;139079;-62
2021/12/17 21:21:02;;;;;;;12.60;4.80;;;;;;;5.78;64.58;100356.11;212379;1322;138869;-61
2021/12/17 21:26:05;;;;;;;12.30;4.80;;;;;;;5.74;64.28;100357.77;212482;1322;139172;-63
2021/12/17 21:31:08;;;;;;;12.80;4.40;;;;;;;5.74;64.53;100360.08;212382;1326;139132;-62
2021/12/17 21:36:16;;;;;;;11.90;4.30;;;;;;;5.75;64.59;100357.77;212300;1325;139121;-63
2021/12/17 21:41:19;;;;;;;14.50;4.70;;;;;;;5.78;64.32;100359.45;212190;1328;140801;-63
2021/12/17 21:46:22;;;;;;;12.40;4.40;;;;;;;5.80;64.22;100355.52;212878;1322;140655;-60
2021/12/17 21:51:26;;;;;;;14.30;5.30;;;;;;;5.85;64.49;100363.01;212747;1323;142023;-61
2021/12/17 21:56:29;;;;;;;13.50;4.20;;;;;;;5.87;64.52;100371.95;212272;1322;139488;-59
2021/12/17 22:01:32;;;;;;;11.80;4.50;;;;;;;5.83;64.03;100371.69;212106;1322;138939;-61
2021/12/17 22:06:36;;;;;;;12.10;4.30;;;;;;;5.79;63.87;100379.70;212156;1325;139969;-63
2021/12/17 22:11:39;;;;;;;14.60;4.60;;;;;;;5.72;64.09;100373.51;211935;1326;141250;-60
2021/12/17 22:16:42;;;;;;;11.10;4.60;;;;;;;5.60;64.16;100377.45;212586;1322;139111;-60
2021/12/17 22:21:52;;;;;;;13.00;4.50;;;;;;;5.53;64.06;100387.80;212339;1327;139606;-62
2021/12/17 22:26:56;;;;;;;14.80;4.20;;;;;;;5.51;64.18;100390.65;212782;1322;139420;-62
2021/12/17 22:32:00;;;;;;;91.10;47.70;;;;;;;5.50;64.57;100391.02;211761;1330;140058;-60
2021/12/17 22:37:05;;;;;;;15.20;6.40;;;;;;;5.58;64.69;100396.50;212672;1321;139836;-61
2021/12/17 22:42:08;;;;;;;13.50;4.80;;;;;;;5.53;64.30;100397.13;212454;1326;141210;-62
2021/12/17 22:47:12;;;;;;;11.40;3.90;;;;;;;5.55;64.41;100402.90;212534;1322;140427;-60
2021/12/17 22:52:15;;;;;;;16.30;4.60;;;;;;;5.59;64.29;100411.26;212484;1321;139768;-60
2021/12/17 22:57:18;;;;;;;14.80;4.60;;;;;;;5.52;64.22;100420.55;212922;1323;139420;-64
2021/12/17 23:02:22;;;;;;;13.90;4.80;;;;;;;5.47;64.17;100426.45;212656;1321;138988;-65
2021/12/17 23:07:32;;;;;;;10.30;4.30;;;;;;;5.48;64.55;100435.23;211988;1325;139030;-59
2021/12/17 23:12:35;;;;;;;12.80;4.70;;;;;;;5.52;64.24;100442.39;212304;1328;139132;-61
2021/12/17 23:17:38;;;;;;;11.90;4.60;;;;;;;5.51;64.56;100444.52;212156;1327;139209;-63
2021/12/17 23:22:43;;;;;;;11.30;4.30;;;;;;;5.51;64.44;100436.05;212403;1328;139673;-61
2021/12/17 23:27:46;;;;;;;14.70;4.90;;;;;;;5.49;64.85;100447.20;212226;1322;139530;-65
2021/12/17 23:32:53;;;;;;;13.20;4.90;;;;;;;5.45;64.75;100456.59;212194;1325;138673;-60
2021/12/17 23:37:56;;;;;;;11.90;4.40;;;;;;;5.37;64.86;100460.78;212258;1329;139423;-62
2021/12/17 23:42:59;;;;;;;12.30;4.20;;;;;;;5.32;64.80;100461.77;212031;1329;139345;-63
2021/12/17 23:48:02;;;;;;;11.40;4.30;;;;;;;5.18;64.66;100466.02;212800;1322;139899;-62
2021/12/17 23:53:05;;;;;;;14.20;6.20;;;;;;;5.13;64.89;100458.56;212308;1323;141170;-62
2021/12/17 23:58:09;;;;;;;12.90;4.20;;;;;;;5.12;65.17;100462.96;212156;1325;140727;-62
